Página principal
METAR-TAF:

METAR-TAF

Aeroportos :

Mendoza, Argentina

Aeroporto Internacional Gobernador Francisco Gabrielli

latitude: 32-50S, longitude: 068-47W, altura: 705 m

Observação actual do tempo

O boletim foi feito há 1 hora e 46 minutos, às 22:00 UTC
Vento 10 kt de nordeste
Temperatura 24°C
Humidade 18%
Pressão 1009 hPa
Visibilidade 10 km ou mais
sem nuvens abaixo de 1500 metros e sem cumulonimbus

METAR: SAME 192200Z 05010KT CAVOK 24/M02 Q1009

Hora: 20:46 (23:46 UTC)

Previsão

O boletim foi feito há 46 minutos, às 23:00 UTC
Previsão válida de 20 às 00 UTC a 20 às 24 UTC
Vento 10 kt de nordeste
Visibilidade 10 km ou mais
Poucas nuvensa uma altura de 4000 ft
Tornando-se
de 20 às 10 UTC a 20 às 12 UTC
Vento 10 kt de su-sudeste
Visibilidade 10 km ou mais
Nuvens dispersasa uma altura de 4000 ft
Nuvens dispersasa uma altura de 8000 ft

TAF: SAME 192300Z 2000/2024 05010KT 9999 FEW040 TX27/2020Z TN10/2010Z BECMG 2010/2012 16010KT 9999 SCT040 SCT080

Observações e previsões do tempo de mais de 4000 aeroportos (mensagens METAR e TAF).

As estações disponíveis são os pontos amarelos e vermelhos sobre o mapa.

Mova o rato sobre o mapa para ver o nome da estação.

Depois clique no ponto para visualizar as observações e previsões meteorológicas.

Para alterar o mapa : clique nos botões verdes com uma cruz preta para aumentar o zoom; no botão verde com uma pitada de zoom; ou nas setas verdes para mapas adjacentes.


METAR-TAF: